Mustafa Dayi — TCZF2 — position and weather

sailwx.info

Track history (hours):
 
Tides and Currents Weather Stations Pressure Air Temp Water Temp Dewpoint Dewpoint Depression Visibility Wind Speed Wind Dir Waves Ship Positions

Mustafa Dayi

Last reported at 2015-May-29 16:33 UTC. Time now 2015-May-30 22:44 UTC.
Position N 40°45' E 028°58'.

Length 183 m; draft 9.8 m.

Type: Ship (hazmat cat A). MMSI: 271042433.

Date/timePositionNaut miles runAvg speedWind from/ knotsBaromVisibWave heightAir tempDewpointWater temp
2015-May-29 16:33N 40°45' E 028°58'1414.0
2015-May-29 15:33N 40°46' E 029°17'1211.8
2015-May-29 14:33N 40°45' E 029°32'4 0.1
2015-May-28 09:24N 40°44' E 029°27'8 9.4
2015-May-28 08:33N 40°45' E 029°17'0 0.4
2015-May-28 07:33N 40°45' E 029°16'0 0.3
2015-May-28 06:33N 40°45' E 029°17'1 0.6
2015-May-28 05:33N 40°45' E 029°17'3 3.4
2015-May-28 04:33N 40°42' E 029°19'0 0.3
2015-May-28 03:33N 40°42' E 029°18'1 0.5
2015-May-28 02:32N 40°42' E 029°18'1 0.6
2015-May-28 01:33N 40°43' E 029°17'1 0.7
2015-May-28 00:33N 40°42' E 029°16'6 5.7
2015-May-27 23:33N 40°42' E 029°09'7 7.0
2015-May-27 22:33N 40°40' E 028°60'10 9.4
2015-May-27 21:33N 40°35' E 028°49'13 9.0
2015-May-27 20:08N 40°26' E 028°60'4 6.7
2015-May-27 19:32N 40°25' E 029°05'0 0.0
2015-May-27 17:32N 40°25' E 029°05'0 0.0
2015-May-27 15:20N 40°25' E 029°05'0 0.0
2015-May-27 06:22N 40°25' E 029°05'38 2.4
2015-May-26 14:31N 40°58' E 028°40'0 0.0
2015-May-26 12:31N 40°58' E 028°40'0 0.0
2015-May-26 11:33N 40°58' E 028°40'0 0.0
2015-May-26 02:23N 40°58' E 028°40'0 0.0
2015-May-25 21:11N 40°58' E 028°40'0 0.0
2015-May-25 19:19N 40°58' E 028°40'0 0.0
2015-May-25 17:33N 40°58' E 028°40'2 0.5
2015-May-25 14:27N 40°56' E 028°39'0 0.0
2015-May-24 20:28N 40°56' E 028°39'0 0.0
2015-May-24 12:31N 40°56' E 028°39'0 0.0
2015-May-24 11:12N 40°56' E 028°39'0 0.0
2015-May-24 07:29N 40°57' E 028°39'0 0.0
2015-May-24 06:10N 40°57' E 028°39'0 0.0
2015-May-24 05:22N 40°57' E 028°39'0 0.0
2015-May-23 23:19N 40°57' E 028°39'0 0.0
2015-May-23 22:31N 40°57' E 028°39'0 0.0
2015-May-23 19:18N 40°56' E 028°39'6 8.1
2015-May-23 18:30N 40°50' E 028°36'1313.7
2015-May-23 17:33N 40°48' E 028°19'1413.9
2015-May-23 16:31N 40°46' E 028°01'1613.6
2015-May-23 15:22N 40°44' E 027°40'9012.6
2015-May-23 08:11N 39°57' E 025°59'913.5
2015-May-23 07:30N 39°49' E 025°52'1514.0
2015-May-23 06:26N 39°35' E 025°49'10514.2
2015-May-22 23:05N 37°50' E 025°51'914.3
2015-May-22 22:29N 37°42' E 025°52'1314.0
2015-May-22 21:33N 37°29' E 025°57'1413.6
2015-May-22 20:33N 37°20' E 026°09'1413.6
2015-May-22 19:31N 37°10' E 026°22'1313.6
2015-May-22 18:33N 37°01' E 026°34'1313.4
2015-May-22 17:33N 36°50' E 026°44'1313.4
2015-May-22 16:33N 36°39' E 026°53'1212.5
2015-May-22 15:33N 36°32' E 027°06'1413.8
2015-May-22 14:33N 36°31' E 027°23'1413.6
2015-May-22 13:33N 36°30' E 027°40'25213.1
2015-May-21 18:25N 35°59' E 032°50'100 3.7
2015-May-20 15:33N 36°48' E 034°39'11610.5
2015-May-20 04:26N 34°53' E 035°00'  
Track history (hours):
 
Tides and Currents Weather Stations Pressure Air Temp Water Temp Dewpoint Dewpoint Depression Visibility Wind Speed Wind Dir Waves Ship Positions

Mustafa Dayi

Last reported at 2015-May-29 16:33 UTC. Time now 2015-May-30 22:44 UTC.
Position N 40°45' E 028°58'.

Length 183 m; draft 9.8 m.

Type: Ship (hazmat cat A). MMSI: 271042433.

Date/timePositionNaut miles runAvg speedWind from/ knotsBaromVisibWave heightAir tempDewpointWater temp
2015-May-29 16:33N 40°45' E 028°58'1414.0
2015-May-29 15:33N 40°46' E 029°17'1211.8
2015-May-29 14:33N 40°45' E 029°32'4 0.1
2015-May-28 09:24N 40°44' E 029°27'8 9.4
2015-May-28 08:33N 40°45' E 029°17'0 0.4
2015-May-28 07:33N 40°45' E 029°16'0 0.3
2015-May-28 06:33N 40°45' E 029°17'1 0.6
2015-May-28 05:33N 40°45' E 029°17'3 3.4
2015-May-28 04:33N 40°42' E 029°19'0 0.3
2015-May-28 03:33N 40°42' E 029°18'1 0.5
2015-May-28 02:32N 40°42' E 029°18'1 0.6
2015-May-28 01:33N 40°43' E 029°17'1 0.7
2015-May-28 00:33N 40°42' E 029°16'6 5.7
2015-May-27 23:33N 40°42' E 029°09'7 7.0
2015-May-27 22:33N 40°40' E 028°60'10 9.4
2015-May-27 21:33N 40°35' E 028°49'13 9.0
2015-May-27 20:08N 40°26' E 028°60'4 6.7
2015-May-27 19:32N 40°25' E 029°05'0 0.0
2015-May-27 17:32N 40°25' E 029°05'0 0.0
2015-May-27 15:20N 40°25' E 029°05'0 0.0
2015-May-27 06:22N 40°25' E 029°05'38 2.4
2015-May-26 14:31N 40°58' E 028°40'0 0.0
2015-May-26 12:31N 40°58' E 028°40'0 0.0
2015-May-26 11:33N 40°58' E 028°40'0 0.0
2015-May-26 02:23N 40°58' E 028°40'0 0.0
2015-May-25 21:11N 40°58' E 028°40'0 0.0
2015-May-25 19:19N 40°58' E 028°40'0 0.0
2015-May-25 17:33N 40°58' E 028°40'2 0.5
2015-May-25 14:27N 40°56' E 028°39'0 0.0
2015-May-24 20:28N 40°56' E 028°39'0 0.0
2015-May-24 12:31N 40°56' E 028°39'0 0.0
2015-May-24 11:12N 40°56' E 028°39'0 0.0
2015-May-24 07:29N 40°57' E 028°39'0 0.0
2015-May-24 06:10N 40°57' E 028°39'0 0.0
2015-May-24 05:22N 40°57' E 028°39'0 0.0
2015-May-23 23:19N 40°57' E 028°39'0 0.0
2015-May-23 22:31N 40°57' E 028°39'0 0.0
2015-May-23 19:18N 40°56' E 028°39'6 8.1
2015-May-23 18:30N 40°50' E 028°36'1313.7
2015-May-23 17:33N 40°48' E 028°19'1413.9
2015-May-23 16:31N 40°46' E 028°01'1613.6
2015-May-23 15:22N 40°44' E 027°40'9012.6
2015-May-23 08:11N 39°57' E 025°59'913.5
2015-May-23 07:30N 39°49' E 025°52'1514.0
2015-May-23 06:26N 39°35' E 025°49'10514.2
2015-May-22 23:05N 37°50' E 025°51'914.3
2015-May-22 22:29N 37°42' E 025°52'1314.0
2015-May-22 21:33N 37°29' E 025°57'1413.6
2015-May-22 20:33N 37°20' E 026°09'1413.6
2015-May-22 19:31N 37°10' E 026°22'1313.6
2015-May-22 18:33N 37°01' E 026°34'1313.4
2015-May-22 17:33N 36°50' E 026°44'1313.4
2015-May-22 16:33N 36°39' E 026°53'1212.5
2015-May-22 15:33N 36°32' E 027°06'1413.8
2015-May-22 14:33N 36°31' E 027°23'1413.6
2015-May-22 13:33N 36°30' E 027°40'25213.1
2015-May-21 18:25N 35°59' E 032°50'100 3.7
2015-May-20 15:33N 36°48' E 034°39'11610.5
2015-May-20 04:26N 34°53' E 035°00'  

Dump ship's entire track history